Trans Sea — 9HA2564 — position and weather

sailwx.info

Track history (hours):
 
Tides and Currents Weather Stations Pressure Air Temp Water Temp Dewpoint Dewpoint Depression Visibility Wind Speed Wind Dir Waves Ship Positions

Trans Sea

Last reported at 2016-Jun-23 21:06 UTC. Time now 2016-Jun-25 23:21 UTC.
Position N 34°11' W 009°36'.

Length 107 m; draft 5.2 m.

Type: Ship (hazmat cat B). MMSI: 248887000.

Date/timePositionNaut miles runAvg speedWind from/ knotsBaromVisibWave heightAir tempDewpointWater temp
2016-Jun-23 21:06N 34°11' W 009°36'18712.0
2016-Jun-23 05:32N 37°17' W 009°60'1111.7
2016-Jun-23 04:33N 37°28' W 010°01'1211.9
2016-Jun-23 03:31N 37°41' W 010°03'1312.2
2016-Jun-23 02:25N 37°54' W 010°04'1112.1
2016-Jun-23 01:32N 38°05' W 010°06'1312.4
2016-Jun-23 00:32N 38°17' W 010°07'1212.4
2016-Jun-22 23:33N 38°29' W 010°09'1212.0
2016-Jun-22 22:33N 38°41' W 010°10'1212.4
2016-Jun-22 21:32N 38°54' W 010°09'1312.9
2016-Jun-22 20:31N 39°05' W 010°01'  
2016-Jun-19 13:29N 39°15' W 009°47'1010.7
2016-Jun-19 12:33N 39°05' W 009°48'2110.7
2016-Jun-19 10:33N 38°44' W 009°51'1110.6
2016-Jun-19 09:33N 38°33' W 009°48'1110.1
2016-Jun-19 08:31N 38°23' W 009°46'1010.1
2016-Jun-19 07:33N 38°13' W 009°42'1010.1
2016-Jun-19 06:33N 38°04' W 009°39'2510.5
2016-Jun-19 04:12N 37°39' W 009°34'96 8.9
2016-Jun-18 17:28N 36°29' W 008°12'1511.1
2016-Jun-18 16:10N 36°25' W 007°54'711.4
2016-Jun-18 15:33N 36°23' W 007°46'10911.6
2016-Jun-18 06:11N 35°58' W 005°35'6 9.9
2016-Jun-18 05:33N 35°60' W 005°28'1010.3
2016-Jun-18 04:33N 36°04' W 005°16'14411.5
2016-Jun-17 16:03N 36°26' W 002°19'16210.9
2016-Jun-17 01:07N 36°59' E 000°59'6 9.8
2016-Jun-17 00:33N 37°00' E 001°05'  
2016-Jun-14 20:04N 37°33' E 011°45'711.9
2016-Jun-14 19:27N 37°33' E 011°54'1312.0
2016-Jun-14 18:22N 37°31' E 012°10'911.6
2016-Jun-14 17:33N 37°30' E 012°22'2811.7
2016-Jun-14 15:08N 37°19' E 012°55'711.6
2016-Jun-14 14:32N 37°16' E 013°03'1111.5
2016-Jun-14 13:33N 37°10' E 013°15'1110.9
2016-Jun-14 12:33N 37°05' E 013°27'1110.8
2016-Jun-14 11:33N 37°00' E 013°39'1110.6
2016-Jun-14 10:33N 36°55' E 013°51'1010.2
2016-Jun-14 09:32N 36°50' E 014°02'1010.0
2016-Jun-14 08:33N 36°45' E 014°13'1110.6
2016-Jun-14 07:33N 36°40' E 014°24'1110.4
2016-Jun-14 06:30N 36°37' E 014°38'  
Track history (hours):
 
Tides and Currents Weather Stations Pressure Air Temp Water Temp Dewpoint Dewpoint Depression Visibility Wind Speed Wind Dir Waves Ship Positions

Trans Sea

Last reported at 2016-Jun-23 21:06 UTC. Time now 2016-Jun-25 23:21 UTC.
Position N 34°11' W 009°36'.

Length 107 m; draft 5.2 m.

Type: Ship (hazmat cat B). MMSI: 248887000.

Date/timePositionNaut miles runAvg speedWind from/ knotsBaromVisibWave heightAir tempDewpointWater temp
2016-Jun-23 21:06N 34°11' W 009°36'18712.0
2016-Jun-23 05:32N 37°17' W 009°60'1111.7
2016-Jun-23 04:33N 37°28' W 010°01'1211.9
2016-Jun-23 03:31N 37°41' W 010°03'1312.2
2016-Jun-23 02:25N 37°54' W 010°04'1112.1
2016-Jun-23 01:32N 38°05' W 010°06'1312.4
2016-Jun-23 00:32N 38°17' W 010°07'1212.4
2016-Jun-22 23:33N 38°29' W 010°09'1212.0
2016-Jun-22 22:33N 38°41' W 010°10'1212.4
2016-Jun-22 21:32N 38°54' W 010°09'1312.9
2016-Jun-22 20:31N 39°05' W 010°01'  
2016-Jun-19 13:29N 39°15' W 009°47'1010.7
2016-Jun-19 12:33N 39°05' W 009°48'2110.7
2016-Jun-19 10:33N 38°44' W 009°51'1110.6
2016-Jun-19 09:33N 38°33' W 009°48'1110.1
2016-Jun-19 08:31N 38°23' W 009°46'1010.1
2016-Jun-19 07:33N 38°13' W 009°42'1010.1
2016-Jun-19 06:33N 38°04' W 009°39'2510.5
2016-Jun-19 04:12N 37°39' W 009°34'96 8.9
2016-Jun-18 17:28N 36°29' W 008°12'1511.1
2016-Jun-18 16:10N 36°25' W 007°54'711.4
2016-Jun-18 15:33N 36°23' W 007°46'10911.6
2016-Jun-18 06:11N 35°58' W 005°35'6 9.9
2016-Jun-18 05:33N 35°60' W 005°28'1010.3
2016-Jun-18 04:33N 36°04' W 005°16'14411.5
2016-Jun-17 16:03N 36°26' W 002°19'16210.9
2016-Jun-17 01:07N 36°59' E 000°59'6 9.8
2016-Jun-17 00:33N 37°00' E 001°05'  
2016-Jun-14 20:04N 37°33' E 011°45'711.9
2016-Jun-14 19:27N 37°33' E 011°54'1312.0
2016-Jun-14 18:22N 37°31' E 012°10'911.6
2016-Jun-14 17:33N 37°30' E 012°22'2811.7
2016-Jun-14 15:08N 37°19' E 012°55'711.6
2016-Jun-14 14:32N 37°16' E 013°03'1111.5
2016-Jun-14 13:33N 37°10' E 013°15'1110.9
2016-Jun-14 12:33N 37°05' E 013°27'1110.8
2016-Jun-14 11:33N 37°00' E 013°39'1110.6
2016-Jun-14 10:33N 36°55' E 013°51'1010.2
2016-Jun-14 09:32N 36°50' E 014°02'1010.0
2016-Jun-14 08:33N 36°45' E 014°13'1110.6
2016-Jun-14 07:33N 36°40' E 014°24'1110.4
2016-Jun-14 06:30N 36°37' E 014°38'  

Dump ship's entire track history